createdAt,value
2022-09-10T00:00:22.938Z,2
2022-09-10T00:01:22.933Z,2
2022-09-10T00:02:22.933Z,2
2022-09-10T00:03:22.935Z,2
2022-09-10T00:04:22.935Z,2
2022-09-10T00:05:22.938Z,2
2022-09-10T00:06:22.932Z,2
2022-09-10T00:07:22.927Z,2
2022-09-10T00:08:22.940Z,2
2022-09-10T00:09:22.938Z,2
2022-09-10T00:10:22.931Z,2
2022-09-10T00:11:22.934Z,2
2022-09-10T00:12:22.969Z,2
2022-09-10T00:13:22.949Z,2
2022-09-10T00:14:22.939Z,2
2022-09-10T00:15:22.937Z,2
2022-09-10T00:16:23.062Z,2
2022-09-10T00:17:22.940Z,2
2022-09-10T00:18:22.942Z,2
2022-09-10T00:19:22.938Z,2
2022-09-10T00:20:22.936Z,2
2022-09-10T00:21:22.946Z,2
2022-09-10T00:22:22.943Z,2
2022-09-10T00:23:22.954Z,2
2022-09-10T00:24:23.031Z,2
2022-09-10T00:25:23.329Z,2
2022-09-10T00:26:22.951Z,2
2022-09-10T00:27:22.941Z,2
2022-09-10T00:28:22.949Z,2
2022-09-10T00:29:22.948Z,2
2022-09-10T00:30:22.960Z,2
2022-09-10T00:31:22.988Z,2
2022-09-10T00:32:22.942Z,2
2022-09-10T00:33:22.952Z,2
2022-09-10T00:34:22.940Z,3
2022-09-10T00:35:22.945Z,2
2022-09-10T00:36:22.958Z,2
2022-09-10T00:37:22.952Z,3
2022-09-10T00:38:22.948Z,2
2022-09-10T00:39:23.024Z,2
2022-09-10T00:40:22.945Z,2
2022-09-10T00:41:22.952Z,2
2022-09-10T00:42:22.962Z,2
2022-09-10T00:43:22.984Z,2
2022-09-10T00:44:22.958Z,2
2022-09-10T00:45:23.004Z,2
2022-09-10T00:46:22.961Z,2
2022-09-10T00:47:22.960Z,2
2022-09-10T00:48:22.956Z,2
2022-09-10T00:49:22.964Z,2
2022-09-10T00:50:22.965Z,2
2022-09-10T00:51:22.954Z,2
2022-09-10T00:52:22.963Z,2
2022-09-10T00:53:22.959Z,2
2022-09-10T00:54:23.037Z,2
2022-09-10T00:55:22.955Z,1
2022-09-10T00:56:22.958Z,2
2022-09-10T00:57:22.957Z,2
2022-09-10T00:58:22.965Z,2
2022-09-10T00:59:22.959Z,1
2022-09-10T01:00:22.975Z,2
2022-09-10T01:01:22.967Z,1
2022-09-10T01:02:22.968Z,2
2022-09-10T01:03:25.450Z,1
2022-09-10T01:04:23.033Z,2
2022-09-10T01:05:22.956Z,2
2022-09-10T01:06:22.961Z,2
2022-09-10T01:07:22.984Z,2
2022-09-10T01:08:22.962Z,2
2022-09-10T01:09:22.960Z,2
2022-09-10T01:10:22.982Z,2
2022-09-10T01:11:22.969Z,2
2022-09-10T01:12:22.965Z,2
2022-09-10T01:13:22.971Z,2
2022-09-10T01:14:22.990Z,2
2022-09-10T01:15:22.968Z,2
2022-09-10T01:16:23.036Z,2
2022-09-10T01:17:22.970Z,2
2022-09-10T01:18:22.964Z,2
2022-09-10T01:19:22.975Z,2
2022-09-10T01:20:22.975Z,2
2022-09-10T01:21:22.973Z,2
2022-09-10T01:22:23.012Z,2
2022-09-10T01:23:22.973Z,2
2022-09-10T01:24:22.969Z,2
2022-09-10T01:25:22.988Z,2
2022-09-10T01:26:22.984Z,2
2022-09-10T01:27:22.974Z,2
2022-09-10T01:28:22.973Z,2
2022-09-10T01:29:22.969Z,2
2022-09-10T01:30:22.973Z,2
2022-09-10T01:31:23.009Z,2
2022-09-10T01:32:22.977Z,2
2022-09-10T01:33:22.972Z,2
2022-09-10T01:34:22.977Z,2
2022-09-10T01:35:22.989Z,2
2022-09-10T01:36:22.994Z,2
2022-09-10T01:37:22.980Z,2
2022-09-10T01:38:22.984Z,2
2022-09-10T01:39:23.014Z,2
2022-09-10T01:40:22.982Z,2
2022-09-10T01:41:22.978Z,2
2022-09-10T01:42:22.981Z,1
2022-09-10T01:43:22.984Z,1
2022-09-10T01:44:22.987Z,1
2022-09-10T01:45:23.044Z,1
2022-09-10T01:46:22.985Z,2
2022-09-10T01:47:22.985Z,2
2022-09-10T01:48:22.984Z,2
2022-09-10T01:49:22.985Z,1
2022-09-10T01:50:22.987Z,2
2022-09-10T01:51:22.988Z,2
2022-09-10T01:52:22.988Z,2
2022-09-10T01:53:22.987Z,1
2022-09-10T01:54:22.988Z,2
2022-09-10T01:55:22.986Z,1
2022-09-10T01:56:22.990Z,2
2022-09-10T01:57:22.993Z,2
2022-09-10T01:58:22.990Z,1
2022-09-10T01:59:22.995Z,2
2022-09-10T02:00:22.987Z,1
2022-09-10T02:01:23.014Z,1
2022-09-10T02:02:23.031Z,2
2022-09-10T02:03:22.994Z,1
2022-09-10T02:04:22.995Z,2
2022-09-10T02:05:22.986Z,1
2022-09-10T02:06:22.992Z,1
2022-09-10T02:07:22.990Z,1
2022-09-10T02:08:22.991Z,2
2022-09-10T02:09:22.989Z,1
2022-09-10T02:10:22.991Z,1
2022-09-10T02:11:22.999Z,1
2022-09-10T02:12:23.000Z,1
2022-09-10T02:13:23.000Z,2
2022-09-10T02:14:22.994Z,2
2022-09-10T02:15:22.995Z,1
2022-09-10T02:16:23.122Z,2
2022-09-10T02:17:22.999Z,2
2022-09-10T02:18:23.002Z,1
2022-09-10T02:19:22.999Z,1
2022-09-10T02:20:22.999Z,1
2022-09-10T02:21:22.998Z,1
2022-09-10T02:22:23.007Z,2
2022-09-10T02:23:23.009Z,2
2022-09-10T02:24:23.000Z,2
2022-09-10T02:25:23.008Z,2
2022-09-10T02:26:23.007Z,1
2022-09-10T02:27:23.003Z,2
2022-09-10T02:28:23.002Z,2
2022-09-10T02:29:23.005Z,1
2022-09-10T02:30:23.004Z,1
2022-09-10T02:31:23.051Z,1
2022-09-10T02:32:23.003Z,1
2022-09-10T02:33:23.002Z,2
2022-09-10T02:34:23.000Z,2
2022-09-10T02:35:23.009Z,2
2022-09-10T02:36:22.997Z,2
2022-09-10T02:37:23.003Z,2
2022-09-10T02:38:23.005Z,2
2022-09-10T02:39:23.010Z,2
2022-09-10T02:40:23.005Z,2
2022-09-10T02:41:23.003Z,2
2022-09-10T02:42:23.006Z,1
2022-09-10T02:43:23.014Z,2
2022-09-10T02:44:23.005Z,2
2022-09-10T02:45:23.093Z,2
2022-09-10T02:46:23.010Z,2
2022-09-10T02:47:23.035Z,2
2022-09-10T02:48:23.012Z,2
2022-09-10T02:49:23.013Z,2
2022-09-10T02:50:23.010Z,2
2022-09-10T02:51:23.009Z,2
2022-09-10T02:52:23.016Z,2
2022-09-10T02:53:23.013Z,2
2022-09-10T02:54:23.011Z,2
2022-09-10T02:55:23.011Z,2
2022-09-10T02:56:23.010Z,2
2022-09-10T02:57:23.015Z,2
2022-09-10T02:58:23.015Z,2
2022-09-10T02:59:23.010Z,2
2022-09-10T03:00:23.020Z,2
2022-09-10T03:02:23.072Z,2
2022-09-10T03:03:23.020Z,2
2022-09-10T03:04:23.023Z,2
2022-09-10T03:05:23.111Z,2
2022-09-10T03:06:23.020Z,2
2022-09-10T03:07:23.023Z,2
2022-09-10T03:08:23.016Z,2
2022-09-10T03:09:23.021Z,2
2022-09-10T03:10:23.022Z,2
2022-09-10T03:11:23.013Z,2
2022-09-10T03:12:23.025Z,2
2022-09-10T03:13:23.039Z,2
2022-09-10T03:14:23.023Z,2
2022-09-10T03:15:23.028Z,2
2022-09-10T03:16:23.028Z,2
2022-09-10T03:17:23.022Z,2
2022-09-10T03:19:23.025Z,2
2022-09-10T03:20:23.023Z,2
2022-09-10T03:21:23.019Z,2
2022-09-10T03:22:23.024Z,2
2022-09-10T03:23:23.035Z,2
2022-09-10T03:24:23.020Z,2
2022-09-10T03:25:23.023Z,2
2022-09-10T03:26:23.027Z,2
2022-09-10T03:27:23.024Z,2
2022-09-10T03:28:23.031Z,2
2022-09-10T03:29:23.028Z,2
2022-09-10T03:30:23.026Z,2
2022-09-10T03:31:23.053Z,2
2022-09-10T03:32:23.037Z,2
2022-09-10T03:33:23.057Z,2
2022-09-10T03:34:23.053Z,2
2022-09-10T03:35:23.032Z,2
2022-09-10T03:36:23.026Z,2
2022-09-10T03:37:23.051Z,2
2022-09-10T03:38:23.032Z,2
2022-09-10T03:39:23.034Z,2
2022-09-10T03:40:23.035Z,2
2022-09-10T03:41:23.030Z,3
2022-09-10T03:42:23.043Z,3
2022-09-10T03:43:23.041Z,3
2022-09-10T03:44:23.034Z,3
2022-09-10T03:45:23.073Z,3
2022-09-10T03:46:23.042Z,3
2022-09-10T03:47:23.038Z,3
2022-09-10T03:48:23.038Z,3
2022-09-10T03:49:23.037Z,3
2022-09-10T03:51:23.035Z,3
2022-09-10T03:52:23.033Z,3
2022-09-10T03:53:23.039Z,4
2022-09-10T03:54:23.043Z,4
2022-09-10T03:55:23.039Z,4
2022-09-10T03:56:23.048Z,3
2022-09-10T03:57:23.044Z,3
2022-09-10T03:58:23.059Z,3
2022-09-10T03:59:23.043Z,3
2022-09-10T04:00:23.043Z,3
2022-09-10T04:01:23.091Z,3
2022-09-10T04:02:23.093Z,3
2022-09-10T04:03:23.044Z,3
2022-09-10T04:04:23.050Z,3
2022-09-10T04:05:23.068Z,3
2022-09-10T04:06:23.069Z,3
2022-09-10T04:07:23.056Z,3
2022-09-10T04:08:23.043Z,3
2022-09-10T04:09:23.044Z,3
2022-09-10T04:10:23.050Z,3
2022-09-10T04:11:23.044Z,3
2022-09-10T04:12:23.048Z,3
2022-09-10T04:13:23.060Z,3
2022-09-10T04:14:23.050Z,4
2022-09-10T04:15:23.048Z,3
2022-09-10T04:16:23.109Z,3
2022-09-10T04:17:23.049Z,4
2022-09-10T04:18:23.047Z,4
2022-09-10T04:19:23.055Z,5
2022-09-10T04:21:23.056Z,4
2022-09-10T04:22:23.053Z,4
2022-09-10T04:23:23.053Z,5
2022-09-10T04:24:23.056Z,5
2022-09-10T04:25:23.059Z,4
2022-09-10T04:26:23.059Z,5
2022-09-10T04:27:23.060Z,4
2022-09-10T04:28:23.054Z,4
2022-09-10T04:29:23.053Z,4
2022-09-10T04:30:23.056Z,4
2022-09-10T04:31:23.090Z,5
2022-09-10T04:32:23.062Z,4
2022-09-10T04:33:23.050Z,4
2022-09-10T04:34:23.061Z,4
2022-09-10T04:37:23.063Z,3
2022-09-10T04:38:23.058Z,3
2022-09-10T04:39:23.061Z,3
2022-09-10T04:40:23.065Z,3
2022-09-10T04:41:23.066Z,3
2022-09-10T04:42:23.062Z,3
2022-09-10T04:43:23.080Z,4
2022-09-10T04:44:23.068Z,3
2022-09-10T04:45:23.068Z,3
2022-09-10T04:46:23.069Z,3
2022-09-10T04:47:23.071Z,3
2022-09-10T04:48:23.069Z,3
2022-09-10T04:49:23.060Z,3
2022-09-10T04:50:23.105Z,3
2022-09-10T04:51:23.071Z,3
2022-09-10T04:52:23.070Z,3
2022-09-10T04:53:23.080Z,3
2022-09-10T04:54:23.069Z,4
2022-09-10T04:55:23.067Z,4
2022-09-10T04:56:23.062Z,3
2022-09-10T04:57:23.069Z,3
2022-09-10T04:58:23.075Z,3
2022-09-10T04:59:23.074Z,3
2022-09-10T05:00:23.068Z,3
2022-09-10T05:01:23.118Z,3
2022-09-10T05:02:23.094Z,3
2022-09-10T05:03:23.073Z,3
2022-09-10T05:04:23.074Z,3
2022-09-10T05:05:23.063Z,3
2022-09-10T05:06:23.104Z,4
2022-09-10T05:07:23.097Z,3
2022-09-10T05:08:23.071Z,3
2022-09-10T05:09:23.113Z,3
2022-09-10T05:10:23.072Z,3
2022-09-10T05:11:23.074Z,3
2022-09-10T05:12:23.077Z,3
2022-09-10T05:13:23.077Z,3
2022-09-10T05:14:23.094Z,3
2022-09-10T05:15:23.083Z,3
2022-09-10T05:16:23.131Z,3
2022-09-10T05:17:23.089Z,3
2022-09-10T05:18:23.072Z,3
2022-09-10T05:19:23.081Z,3
2022-09-10T05:20:23.080Z,3
2022-09-10T05:21:23.078Z,4
2022-09-10T05:22:23.077Z,3
2022-09-10T05:23:23.092Z,4
2022-09-10T05:24:23.093Z,4
2022-09-10T05:25:23.075Z,4
2022-09-10T05:26:23.079Z,3
2022-09-10T05:27:23.086Z,4
2022-09-10T05:28:23.086Z,4
2022-09-10T05:29:23.084Z,3
2022-09-10T05:30:23.099Z,3
2022-09-10T05:31:23.209Z,3
2022-09-10T05:32:23.081Z,4
2022-09-10T05:33:23.081Z,4
2022-09-10T05:34:23.084Z,4
2022-09-10T05:35:23.085Z,4
2022-09-10T05:36:23.088Z,3
2022-09-10T05:37:23.092Z,3
2022-09-10T05:38:23.113Z,4
2022-09-10T05:39:23.082Z,4
2022-09-10T05:40:23.101Z,3
2022-09-10T05:41:23.091Z,4
2022-09-10T05:42:23.085Z,4
2022-09-10T05:43:23.090Z,3
2022-09-10T05:44:23.091Z,4
2022-09-10T05:45:23.086Z,4
2022-09-10T05:46:23.088Z,3
2022-09-10T05:47:23.094Z,4
2022-09-10T05:48:23.095Z,4
2022-09-10T05:49:23.092Z,4
2022-09-10T05:50:23.093Z,4
2022-09-10T05:51:23.093Z,4
2022-09-10T05:52:23.100Z,4
2022-09-10T05:53:23.097Z,3
2022-09-10T05:54:23.096Z,4
2022-09-10T05:55:23.096Z,4
2022-09-10T05:56:23.096Z,4
2022-09-10T05:57:23.092Z,4
2022-09-10T05:58:23.103Z,4
2022-09-10T05:59:23.104Z,4
2022-09-10T06:00:23.101Z,4
2022-09-10T06:01:23.092Z,4
2022-09-10T06:02:24.173Z,3
2022-09-10T06:03:23.147Z,4
2022-09-10T06:04:23.096Z,4
2022-09-10T06:05:23.098Z,3
2022-09-10T06:06:23.106Z,4
2022-09-10T06:07:23.106Z,4
2022-09-10T06:08:23.100Z,3
2022-09-10T06:09:23.126Z,4
2022-09-10T06:10:23.099Z,4
2022-09-10T06:11:23.170Z,4
2022-09-10T06:12:23.106Z,4
2022-09-10T06:13:23.103Z,4
2022-09-10T06:14:23.101Z,4
2022-09-10T06:15:23.105Z,4
2022-09-10T06:16:23.133Z,4
2022-09-10T06:17:23.107Z,3
2022-09-10T06:18:23.110Z,4
2022-09-10T06:19:23.128Z,4
2022-09-10T06:20:23.103Z,4
2022-09-10T06:21:28.034Z,3
2022-09-10T06:22:23.100Z,4
2022-09-10T06:23:23.108Z,4
2022-09-10T06:24:23.128Z,4
2022-09-10T06:25:23.112Z,4
2022-09-10T06:26:23.112Z,4
2022-09-10T06:27:23.112Z,3
2022-09-10T06:28:23.115Z,4
2022-09-10T06:29:23.104Z,3
2022-09-10T06:30:23.109Z,4
2022-09-10T06:31:23.437Z,4
2022-09-10T06:32:23.130Z,4
2022-09-10T06:33:23.120Z,4
2022-09-10T06:34:23.122Z,4
2022-09-10T06:35:23.120Z,4
2022-09-10T06:37:23.118Z,4
2022-09-10T06:38:23.114Z,4
2022-09-10T06:39:23.110Z,4
2022-09-10T06:40:23.147Z,4
2022-09-10T06:41:23.135Z,3
2022-09-10T06:42:23.120Z,3
2022-09-10T06:43:23.120Z,4
2022-09-10T06:44:23.117Z,4
2022-09-10T06:45:23.122Z,4
2022-09-10T06:47:01.647Z,4
2022-09-10T06:48:40.622Z,3
2022-09-10T06:49:23.117Z,4
2022-09-10T06:50:23.113Z,4
2022-09-10T06:51:23.122Z,4
2022-09-10T06:52:23.128Z,4
2022-09-10T06:53:23.123Z,4
2022-09-10T06:54:23.124Z,4
2022-09-10T06:55:23.124Z,4
2022-09-10T06:56:23.126Z,4
2022-09-10T06:58:23.186Z,4
2022-09-10T06:59:23.123Z,4
2022-09-10T07:00:23.128Z,4
2022-09-10T07:01:23.224Z,4
2022-09-10T07:02:23.243Z,4
2022-09-10T07:03:23.190Z,4
2022-09-10T07:04:23.139Z,5
2022-09-10T07:05:23.132Z,5
2022-09-10T07:06:23.144Z,5
2022-09-10T07:07:23.129Z,4
2022-09-10T07:08:23.138Z,4
2022-09-10T07:09:23.130Z,4
2022-09-10T07:10:23.223Z,4
2022-09-10T07:11:23.152Z,4
2022-09-10T07:12:23.133Z,4
2022-09-10T07:13:23.133Z,4
2022-09-10T07:14:23.126Z,4
2022-09-10T07:15:23.134Z,4
2022-09-10T07:16:23.125Z,4
2022-09-10T07:17:23.142Z,3
2022-09-10T07:18:23.138Z,4
2022-09-10T07:19:23.131Z,3
2022-09-10T07:20:23.213Z,4
2022-09-10T07:21:23.133Z,3
2022-09-10T07:22:23.138Z,4
2022-09-10T07:23:23.136Z,4
2022-09-10T07:24:23.139Z,4
2022-09-10T07:25:23.134Z,3
2022-09-10T07:26:23.131Z,4
2022-09-10T07:27:23.539Z,4
2022-09-10T07:28:23.135Z,4
2022-09-10T07:29:23.137Z,4
2022-09-10T07:30:23.143Z,4
2022-09-10T07:31:23.207Z,4
2022-09-10T07:32:23.143Z,4
2022-09-10T07:33:23.149Z,4
2022-09-10T07:34:23.145Z,3
2022-09-10T07:35:23.138Z,3
2022-09-10T07:36:23.144Z,4
2022-09-10T07:37:23.141Z,4
2022-09-10T07:38:23.148Z,4
2022-09-10T07:39:25.532Z,4
2022-09-10T07:40:23.144Z,3
2022-09-10T07:41:23.145Z,3
2022-09-10T07:42:23.170Z,4
2022-09-10T07:43:23.150Z,3
2022-09-10T07:44:23.148Z,4
2022-09-10T07:45:23.154Z,3
2022-09-10T07:46:23.157Z,4
2022-09-10T07:47:23.146Z,4
2022-09-10T07:48:23.144Z,4
2022-09-10T07:49:23.155Z,4
2022-09-10T07:50:23.149Z,4
2022-09-10T07:51:23.154Z,4
2022-09-10T07:52:23.158Z,4
2022-09-10T07:54:23.154Z,3
2022-09-10T07:55:23.171Z,4
2022-09-10T07:56:23.150Z,4
2022-09-10T07:57:23.154Z,4
2022-09-10T07:58:23.150Z,4
2022-09-10T07:59:23.147Z,4
2022-09-10T08:00:23.155Z,4
2022-09-10T08:01:23.179Z,4
2022-09-10T08:02:23.183Z,4
2022-09-10T08:03:23.161Z,3
2022-09-10T08:04:23.161Z,4
2022-09-10T08:05:23.163Z,3
2022-09-10T08:06:23.165Z,4
2022-09-10T08:07:23.162Z,4
2022-09-10T08:08:23.153Z,4
2022-09-10T08:09:23.161Z,4
2022-09-10T08:10:23.158Z,4
2022-09-10T08:11:23.159Z,4
2022-09-10T08:12:23.160Z,3
2022-09-10T08:13:23.194Z,4
2022-09-10T08:14:23.166Z,4
2022-09-10T08:15:23.165Z,4
2022-09-10T08:16:23.165Z,4
2022-09-10T08:17:23.170Z,4
2022-09-10T08:18:23.207Z,4
2022-09-10T08:19:23.160Z,6
2022-09-10T08:20:23.162Z,5
2022-09-10T08:21:23.166Z,5
2022-09-10T08:22:23.166Z,5
2022-09-10T08:23:23.173Z,5
2022-09-10T08:24:23.163Z,4
2022-09-10T08:25:23.184Z,4
2022-09-10T08:26:23.177Z,5
2022-09-10T08:27:23.166Z,4
2022-09-10T08:28:25.336Z,4
2022-09-10T08:29:23.190Z,5
2022-09-10T08:31:23.226Z,4
2022-09-10T08:32:23.188Z,4
2022-09-10T08:33:23.170Z,4
2022-09-10T08:34:23.190Z,4
2022-09-10T08:35:23.174Z,5
2022-09-10T08:36:23.170Z,4
2022-09-10T08:37:23.164Z,4
2022-09-10T08:38:23.172Z,5
2022-09-10T08:39:23.187Z,5
2022-09-10T08:40:23.174Z,5
2022-09-10T08:41:23.169Z,5
2022-09-10T08:43:23.178Z,5
2022-09-10T08:44:23.204Z,5
2022-09-10T08:45:23.177Z,6
2022-09-10T08:46:23.179Z,5
2022-09-10T08:47:23.178Z,5
2022-09-10T08:48:23.181Z,5
2022-09-10T08:49:23.178Z,5
2022-09-10T08:50:23.184Z,5
2022-09-10T08:51:23.181Z,6
2022-09-10T08:52:23.188Z,5
2022-09-10T08:53:23.182Z,5
2022-09-10T08:54:23.177Z,5
2022-09-10T08:55:23.184Z,6
2022-09-10T08:56:23.175Z,5
2022-09-10T08:57:23.179Z,5
2022-09-10T08:58:23.190Z,5
2022-09-10T08:59:23.185Z,5
2022-09-10T09:00:23.198Z,5
2022-09-10T09:01:23.270Z,5
2022-09-10T09:02:47.288Z,5
2022-09-10T09:03:23.252Z,5
2022-09-10T09:04:23.189Z,5
2022-09-10T09:05:23.188Z,5
2022-09-10T09:06:23.193Z,6
2022-09-10T09:07:23.183Z,5
2022-09-10T09:08:23.188Z,6
2022-09-10T09:09:23.188Z,5
2022-09-10T09:10:23.191Z,6
2022-09-10T09:11:23.188Z,5
2022-09-10T09:12:23.192Z,5
2022-09-10T09:13:23.187Z,6
2022-09-10T09:14:23.198Z,6
2022-09-10T09:15:23.260Z,5
2022-09-10T09:16:23.199Z,4
2022-09-10T09:17:23.195Z,5
2022-09-10T09:18:23.191Z,5
2022-09-10T09:19:23.197Z,5
2022-09-10T09:20:23.220Z,5
2022-09-10T09:21:23.201Z,5
2022-09-10T09:22:23.186Z,5
2022-09-10T09:23:23.195Z,4
2022-09-10T09:24:23.195Z,5
2022-09-10T09:25:23.213Z,5
2022-09-10T09:26:23.196Z,6
2022-09-10T09:27:23.225Z,5
2022-09-10T09:28:23.222Z,5
2022-09-10T09:29:23.200Z,5
2022-09-10T09:30:23.199Z,5
2022-09-10T09:31:23.282Z,5
2022-09-10T09:32:23.201Z,6
2022-09-10T09:33:23.199Z,5
2022-09-10T09:34:23.196Z,6
2022-09-10T09:35:23.199Z,5
2022-09-10T09:36:23.214Z,6
2022-09-10T09:37:23.199Z,6
2022-09-10T09:38:23.202Z,6
2022-09-10T09:40:23.202Z,6
2022-09-10T09:41:23.201Z,6
2022-09-10T09:43:23.211Z,5
2022-09-10T09:44:23.200Z,5
2022-09-10T09:45:23.203Z,5
2022-09-10T09:46:23.255Z,5
2022-09-10T09:47:23.204Z,5
2022-09-10T09:48:23.199Z,5
2022-09-10T09:49:23.205Z,5
2022-09-10T09:50:23.205Z,5
2022-09-10T09:51:23.208Z,5
2022-09-10T09:52:23.205Z,4
2022-09-10T09:53:23.207Z,5
2022-09-10T09:55:23.214Z,5
2022-09-10T09:56:23.207Z,5
2022-09-10T09:57:23.206Z,5
2022-09-10T09:58:23.217Z,4
2022-09-10T09:59:23.213Z,4
2022-09-10T10:00:23.213Z,4
2022-09-10T10:01:23.306Z,4
2022-09-10T10:02:23.268Z,4
2022-09-10T10:03:23.211Z,3
2022-09-10T10:04:23.217Z,4
2022-09-10T10:05:23.211Z,4
2022-09-10T10:06:23.221Z,4
2022-09-10T10:07:23.214Z,4
2022-09-10T10:08:23.214Z,4
2022-09-10T10:09:23.229Z,3
2022-09-10T10:10:23.217Z,4
2022-09-10T10:11:23.221Z,4
2022-09-10T10:12:23.226Z,4
2022-09-10T10:13:23.231Z,4
2022-09-10T10:14:23.218Z,4
2022-09-10T10:15:23.217Z,4
2022-09-10T10:16:23.213Z,4
2022-09-10T10:17:23.243Z,4
2022-09-10T10:18:23.214Z,5
2022-09-10T10:19:23.218Z,5
2022-09-10T10:20:23.220Z,5
2022-09-10T10:21:23.226Z,5
2022-09-10T10:22:23.221Z,5
2022-09-10T10:23:23.225Z,5
2022-09-10T10:24:23.218Z,5
2022-09-10T10:25:23.236Z,4
2022-09-10T10:26:23.224Z,5
2022-09-10T10:27:23.234Z,5
2022-09-10T10:28:23.231Z,5
2022-09-10T10:29:23.218Z,5
2022-09-10T10:30:23.226Z,5
2022-09-10T10:31:23.279Z,5
2022-09-10T10:32:23.238Z,5
2022-09-10T10:33:23.224Z,5
2022-09-10T10:35:23.240Z,5
2022-09-10T10:36:23.230Z,5
2022-09-10T10:37:23.230Z,5
2022-09-10T10:38:23.233Z,5
2022-09-10T10:39:23.235Z,6
2022-09-10T10:40:23.236Z,5
2022-09-10T10:41:23.231Z,6
2022-09-10T10:42:23.244Z,5
2022-09-10T10:43:23.233Z,6
2022-09-10T10:44:23.225Z,6
2022-09-10T10:45:23.240Z,6
2022-09-10T10:46:23.268Z,6
2022-09-10T10:47:23.235Z,7
2022-09-10T10:48:23.258Z,6
2022-09-10T10:49:23.230Z,7
2022-09-10T10:50:23.227Z,7
2022-09-10T10:51:23.233Z,7
2022-09-10T10:52:23.233Z,7
2022-09-10T10:53:23.233Z,7
2022-09-10T10:54:23.233Z,8
2022-09-10T10:55:23.238Z,7
2022-09-10T10:56:23.239Z,8
2022-09-10T10:57:23.240Z,7
2022-09-10T10:58:23.238Z,7
2022-09-10T10:59:23.232Z,7
2022-09-10T11:00:23.243Z,8
2022-09-10T11:01:23.309Z,8
2022-09-10T11:02:23.341Z,7
2022-09-10T11:03:23.253Z,7
2022-09-10T11:04:23.238Z,7
2022-09-10T11:05:23.297Z,7
2022-09-10T11:06:23.245Z,7
2022-09-10T11:07:23.250Z,7
2022-09-10T11:08:23.246Z,7
2022-09-10T11:09:23.249Z,7
2022-09-10T11:10:23.253Z,7
2022-09-10T11:11:23.999Z,8
2022-09-10T11:12:23.239Z,7
2022-09-10T11:13:23.245Z,8
2022-09-10T11:14:23.270Z,7
2022-09-10T11:15:23.252Z,8
2022-09-10T11:16:23.249Z,7
2022-09-10T11:18:23.251Z,7
2022-09-10T11:19:23.281Z,8
2022-09-10T11:20:30.585Z,7
2022-09-10T11:21:23.254Z,7
2022-09-10T11:22:23.256Z,7
2022-09-10T11:23:23.255Z,8
2022-09-10T11:24:23.254Z,8
2022-09-10T11:25:23.249Z,7
2022-09-10T11:26:23.251Z,7
2022-09-10T11:27:23.251Z,7
2022-09-10T11:28:23.246Z,7
2022-09-10T11:29:23.245Z,7
2022-09-10T11:30:23.255Z,7
2022-09-10T11:31:23.308Z,7
2022-09-10T11:32:23.252Z,7
2022-09-10T11:33:23.299Z,8
2022-09-10T11:34:23.252Z,7
2022-09-10T11:35:23.255Z,7
2022-09-10T11:36:23.259Z,7
2022-09-10T11:37:23.259Z,7
2022-09-10T11:38:23.321Z,7
2022-09-10T11:39:23.256Z,7
2022-09-10T11:40:23.321Z,7
2022-09-10T11:41:23.261Z,7
2022-09-10T11:42:23.330Z,7
2022-09-10T11:43:23.256Z,7
2022-09-10T11:44:23.265Z,7
2022-09-10T11:45:23.266Z,7
2022-09-10T11:46:23.302Z,7
2022-09-10T11:47:23.267Z,7
2022-09-10T11:48:23.264Z,6
2022-09-10T11:49:23.276Z,7
2022-09-10T11:50:23.327Z,7
2022-09-10T11:51:23.266Z,6
2022-09-10T11:52:23.268Z,6
2022-09-10T11:53:23.323Z,7
2022-09-10T11:54:23.270Z,7
2022-09-10T11:55:23.278Z,7
2022-09-10T11:56:23.273Z,7
2022-09-10T11:57:23.269Z,7
2022-09-10T11:58:23.276Z,7
2022-09-10T11:59:23.274Z,6
2022-09-10T12:00:23.281Z,7
2022-09-10T12:01:23.280Z,6
2022-09-10T12:02:23.307Z,7
2022-09-10T12:03:23.342Z,7
2022-09-10T12:04:23.274Z,7
2022-09-10T12:05:23.277Z,7
2022-09-10T12:06:23.283Z,7
2022-09-10T12:07:23.277Z,7
2022-09-10T12:08:23.276Z,7
2022-09-10T12:09:23.278Z,7
2022-09-10T12:10:23.290Z,7
2022-09-10T12:11:23.285Z,7
2022-09-10T12:12:23.282Z,7
2022-09-10T12:13:23.288Z,7
2022-09-10T12:14:23.295Z,7
2022-09-10T12:15:23.280Z,7
2022-09-10T12:17:23.287Z,8
2022-09-10T12:18:23.283Z,8
2022-09-10T12:19:23.288Z,8
2022-09-10T12:20:23.299Z,7
2022-09-10T12:21:23.321Z,7
2022-09-10T12:22:23.292Z,8
2022-09-10T12:23:23.289Z,7
2022-09-10T12:24:23.284Z,8
2022-09-10T12:25:23.292Z,8
2022-09-10T12:26:23.313Z,7
2022-09-10T12:27:23.290Z,7
2022-09-10T12:28:23.278Z,7
2022-09-10T12:29:23.300Z,8
2022-09-10T12:30:23.282Z,9
2022-09-10T12:31:23.347Z,7
2022-09-10T12:32:23.288Z,7
2022-09-10T12:33:23.299Z,8
2022-09-10T12:34:23.284Z,8
2022-09-10T12:35:23.294Z,8
2022-09-10T12:36:23.310Z,9
2022-09-10T12:37:23.305Z,9
2022-09-10T12:38:23.321Z,8
2022-09-10T12:39:23.320Z,9
2022-09-10T12:40:23.326Z,9
2022-09-10T12:41:23.285Z,9
2022-09-10T12:42:23.321Z,9
2022-09-10T12:43:23.304Z,9
2022-09-10T12:44:23.293Z,9
2022-09-10T12:45:23.304Z,9
2022-09-10T12:46:23.391Z,9
2022-09-10T12:47:23.298Z,9
2022-09-10T12:49:23.293Z,9
2022-09-10T12:50:23.313Z,9
2022-09-10T12:51:23.291Z,9
2022-09-10T12:52:23.345Z,9
2022-09-10T12:53:23.294Z,10
2022-09-10T12:54:23.297Z,10
2022-09-10T12:55:23.297Z,9
2022-09-10T12:56:23.315Z,9
2022-09-10T12:57:23.301Z,9
2022-09-10T12:58:23.298Z,9
2022-09-10T12:59:23.321Z,10
2022-09-10T13:00:23.305Z,9
2022-09-10T13:01:23.440Z,9
2022-09-10T13:02:23.427Z,9
2022-09-10T13:03:23.303Z,10
2022-09-10T13:04:23.304Z,8
2022-09-10T13:05:23.304Z,9
2022-09-10T13:06:23.305Z,9
2022-09-10T13:07:23.306Z,8
2022-09-10T13:08:23.302Z,10
2022-09-10T13:09:23.308Z,9
2022-09-10T13:10:23.305Z,8
2022-09-10T13:11:23.309Z,8
2022-09-10T13:12:23.312Z,9
2022-09-10T13:13:23.302Z,9
2022-09-10T13:14:23.305Z,9
2022-09-10T13:15:23.313Z,8
2022-09-10T13:16:23.308Z,9
2022-09-10T13:17:23.317Z,9
2022-09-10T13:18:23.305Z,9
2022-09-10T13:19:23.317Z,8
2022-09-10T13:20:23.317Z,9
2022-09-10T13:21:23.308Z,9
2022-09-10T13:22:23.307Z,8
2022-09-10T13:23:23.339Z,8
2022-09-10T13:24:23.317Z,8
2022-09-10T13:25:23.322Z,9
2022-09-10T13:26:23.315Z,9
2022-09-10T13:27:23.316Z,8
2022-09-10T13:28:23.316Z,8
2022-09-10T13:29:23.312Z,9
2022-09-10T13:30:23.314Z,9
2022-09-10T13:31:23.385Z,8
2022-09-10T13:32:23.319Z,9
2022-09-10T13:33:27.994Z,10
2022-09-10T13:34:23.321Z,8
2022-09-10T13:35:23.318Z,8
2022-09-10T13:36:23.321Z,9
2022-09-10T13:37:23.319Z,8
2022-09-10T13:38:23.324Z,9
2022-09-10T13:39:23.319Z,9
2022-09-10T13:40:23.317Z,9
2022-09-10T13:41:23.324Z,8
2022-09-10T13:42:23.318Z,9
2022-09-10T13:43:23.328Z,9
2022-09-10T13:44:23.339Z,8
2022-09-10T13:45:23.325Z,8
2022-09-10T13:46:23.397Z,8
2022-09-10T13:47:23.327Z,8
2022-09-10T13:48:23.320Z,8
2022-09-10T13:49:23.327Z,8
2022-09-10T13:50:23.329Z,8
2022-09-10T13:51:23.325Z,8
2022-09-10T13:52:23.327Z,9
2022-09-10T13:53:23.327Z,9
2022-09-10T13:54:23.351Z,8
2022-09-10T13:55:23.329Z,8
2022-09-10T13:56:23.358Z,9
2022-09-10T13:57:23.372Z,9
2022-09-10T13:58:23.332Z,9
2022-09-10T14:00:23.322Z,9
2022-09-10T14:01:23.369Z,9
2022-09-10T14:02:23.400Z,8
2022-09-10T14:03:23.362Z,9
2022-09-10T14:04:23.326Z,8
2022-09-10T14:05:23.330Z,8
2022-09-10T14:06:23.337Z,8
2022-09-10T14:07:23.367Z,8
2022-09-10T14:08:23.336Z,8
2022-09-10T14:09:23.341Z,8
2022-09-10T14:10:23.342Z,9
2022-09-10T14:11:23.332Z,8
2022-09-10T14:12:23.340Z,8
2022-09-10T14:13:23.335Z,8
2022-09-10T14:14:23.338Z,9
2022-09-10T14:15:23.352Z,9
2022-09-10T14:16:26.196Z,8
2022-09-10T14:17:23.341Z,8
2022-09-10T14:18:23.359Z,9
2022-09-10T14:19:23.340Z,9
2022-09-10T14:20:23.353Z,9
2022-09-10T14:21:23.363Z,9
2022-09-10T14:22:23.342Z,9
2022-09-10T14:23:23.345Z,9
2022-09-10T14:24:23.341Z,9
2022-09-10T14:25:23.378Z,9
2022-09-10T14:26:23.465Z,9
2022-09-10T14:27:23.349Z,9
2022-09-10T14:28:23.346Z,8
2022-09-10T14:29:23.484Z,8
2022-09-10T14:30:23.349Z,7
2022-09-10T14:31:23.426Z,8
2022-09-10T14:32:23.351Z,7
2022-09-10T14:33:23.353Z,8
2022-09-10T14:34:23.354Z,7
2022-09-10T14:35:23.345Z,7
2022-09-10T14:36:23.356Z,8
2022-09-10T14:37:23.347Z,7
2022-09-10T14:38:23.352Z,6
2022-09-10T14:39:23.362Z,6
2022-09-10T14:40:23.357Z,6
2022-09-10T14:41:23.352Z,7
2022-09-10T14:42:23.351Z,7
2022-09-10T14:43:23.348Z,6
2022-09-10T14:44:23.439Z,6
2022-09-10T14:45:23.353Z,6
2022-09-10T14:46:23.378Z,6
2022-09-10T14:47:23.348Z,6
2022-09-10T14:48:23.362Z,6
2022-09-10T14:49:23.354Z,6
2022-09-10T14:50:23.353Z,6
2022-09-10T14:51:23.367Z,6
2022-09-10T14:52:23.360Z,6
2022-09-10T14:53:23.355Z,6
2022-09-10T14:54:23.354Z,6
2022-09-10T14:55:23.360Z,5
2022-09-10T14:57:23.372Z,6
2022-09-10T14:58:23.359Z,6
2022-09-10T14:59:23.358Z,5
2022-09-10T15:00:23.360Z,5
2022-09-10T15:01:23.457Z,4
2022-09-10T15:02:23.364Z,4
2022-09-10T15:03:23.366Z,4
2022-09-10T15:04:23.368Z,4
2022-09-10T15:05:23.367Z,5
2022-09-10T15:06:26.223Z,4
2022-09-10T15:07:23.362Z,4
2022-09-10T15:08:23.370Z,4